Wetterdaten: Woche 06.08.07 - 12.08.07 (KW32)
Datum Zeit Temperatur Luftfeuchte Luftdruck Niederschlag
06.08.2007 00:00 14,9 C 60 % 0 hPa 0,0 l/m
06.08.2007 01:00 14,1 C 63 % 0 hPa 0,0 l/m
06.08.2007 02:00 13,5 C 65 % 0 hPa 0,0 l/m
06.08.2007 03:00 12,9 C 67 % 0 hPa 0,0 l/m
06.08.2007 04:00 12,1 C 70 % 0 hPa 0,0 l/m
06.08.2007 05:00 11,1 C 75 % 0 hPa 0,0 l/m
06.08.2007 06:00 10,4 C 81 % 0 hPa 0,0 l/m
06.08.2007 07:00 11,7 C 82 % 0 hPa 0,0 l/m
06.08.2007 08:00 15,9 C 66 % 0 hPa 0,0 l/m
06.08.2007 09:00 19,0 C 50 % 0 hPa 0,0 l/m
06.08.2007 10:00 21,6 C 45 % 0 hPa 0,0 l/m
06.08.2007 11:00 23,9 C 42 % 0 hPa 0,0 l/m
06.08.2007 12:00 25,9 C 41 % 0 hPa 0,0 l/m
06.08.2007 13:00 27,1 C 40 % 0 hPa 0,0 l/m
06.08.2007 14:00 28,7 C 36 % 0 hPa 0,0 l/m
06.08.2007 15:00 29,2 C 31 % 0 hPa 0,0 l/m
06.08.2007 16:00 29,7 C 29 % 0 hPa 0,0 l/m
06.08.2007 17:00 29,9 C 29 % 0 hPa 0,0 l/m
06.08.2007 18:00 28,1 C 35 % 0 hPa 0,0 l/m
06.08.2007 19:00 21,6 C 64 % 0 hPa 4,0 l/m
06.08.2007 20:00 19,2 C 75 % 0 hPa 0,0 l/m
06.08.2007 21:00 18,4 C 80 % 0 hPa 0,0 l/m
06.08.2007 22:00 17,6 C 87 % 0 hPa 0,0 l/m
06.08.2007 23:00 17,3 C 90 % 0 hPa 0,0 l/m
07.08.2007 00:00 16,8 C 92 % 0 hPa 0,0 l/m
07.08.2007 01:00 16,3 C 93 % 0 hPa 0,0 l/m
07.08.2007 02:00 15,9 C 94 % 0 hPa 0,0 l/m
07.08.2007 03:00 15,9 C 95 % 0 hPa 0,0 l/m
07.08.2007 04:00 15,3 C 95 % 0 hPa 0,0 l/m
07.08.2007 05:00 15,0 C 95 % 0 hPa 0,0 l/m
07.08.2007 06:00 15,1 C 96 % 0 hPa 0,0 l/m
07.08.2007 07:00 15,6 C 97 % 0 hPa 0,0 l/m
07.08.2007 08:00 17,0 C 97 % 0 hPa 0,0 l/m
07.08.2007 09:00 18,1 C 93 % 0 hPa 0,0 l/m
07.08.2007 10:00 19,1 C 84 % 0 hPa 0,0 l/m
07.08.2007 11:00 20,4 C 72 % 0 hPa 0,0 l/m
07.08.2007 12:00 20,6 C 70 % 0 hPa 0,0 l/m
07.08.2007 13:00 20,4 C 70 % 0 hPa 0,0 l/m
07.08.2007 14:00 20,6 C 69 % 0 hPa 0,0 l/m
07.08.2007 15:00 21,2 C 69 % 0 hPa 0,0 l/m
07.08.2007 16:00 20,2 C 75 % 0 hPa 0,0 l/m
07.08.2007 17:00 19,8 C 79 % 0 hPa 1,0 l/m
07.08.2007 18:00 19,2 C 85 % 0 hPa 1,0 l/m
07.08.2007 19:00 18,2 C 88 % 0 hPa 1,0 l/m
07.08.2007 20:00 17,3 C 91 % 0 hPa 7,0 l/m
07.08.2007 21:00 17,1 C 93 % 0 hPa 1,0 l/m
07.08.2007 22:00 16,9 C 94 % 0 hPa 1,0 l/m
07.08.2007 23:00 16,6 C 95 % 0 hPa 4,0 l/m
08.08.2007 00:00 16,4 C 96 % 0 hPa 1,0 l/m
08.08.2007 01:00 16,1 C 96 % 0 hPa 3,0 l/m
08.08.2007 02:00 15,8 C 97 % 0 hPa 1,0 l/m
08.08.2007 03:00 15,6 C 97 % 0 hPa 0,0 l/m
08.08.2007 04:00 15,6 C 97 % 0 hPa 5,0 l/m
08.08.2007 05:00 15,5 C 98 % 0 hPa 6,0 l/m
08.08.2007 06:00 15,2 C 98 % 0 hPa 8,0 l/m
08.08.2007 07:00 15,1 C 98 % 0 hPa 5,0 l/m
08.08.2007 08:00 15,1 C 98 % 0 hPa 2,0 l/m
08.08.2007 09:00 15,1 C 98 % 0 hPa 1,0 l/m
08.08.2007 10:00 15,7 C 98 % 0 hPa 0,0 l/m
08.08.2007 11:00 16,2 C 96 % 0 hPa 0,0 l/m
08.08.2007 12:00 16,4 C 92 % 0 hPa 0,0 l/m
08.08.2007 13:00 17,1 C 82 % 0 hPa 0,0 l/m
08.08.2007 14:00 17,1 C 78 % 0 hPa 0,0 l/m
08.08.2007 15:00 16,9 C 78 % 0 hPa 0,0 l/m
08.08.2007 16:00 17,2 C 75 % 0 hPa 0,0 l/m
08.08.2007 17:00 16,4 C 77 % 0 hPa 0,0 l/m
08.08.2007 18:00 16,0 C 80 % 0 hPa 0,0 l/m
08.08.2007 19:00 15,5 C 81 % 0 hPa 0,0 l/m
08.08.2007 20:00 15,1 C 82 % 0 hPa 0,0 l/m
08.08.2007 21:00 14,7 C 83 % 0 hPa 0,0 l/m
08.08.2007 22:00 14,4 C 86 % 0 hPa 1,0 l/m
08.08.2007 23:00 13,8 C 91 % 0 hPa 4,0 l/m
09.08.2007 00:00 13,4 C 94 % 0 hPa 2,0 l/m
09.08.2007 01:00 13,2 C 95 % 0 hPa 0,0 l/m
09.08.2007 02:00 13,2 C 95 % 0 hPa 0,0 l/m
09.08.2007 03:00 13,1 C 96 % 0 hPa 2,0 l/m
09.08.2007 04:00 12,8 C 97 % 0 hPa 1,0 l/m
09.08.2007 05:00 11,6 C 97 % 0 hPa 2,0 l/m
09.08.2007 06:00 10,9 C 98 % 0 hPa 2,0 l/m
09.08.2007 07:00 10,8 C 98 % 0 hPa 0,0 l/m
09.08.2007 08:00 11,1 C 98 % 0 hPa 2,0 l/m
09.08.2007 09:00 11,3 C 98 % 0 hPa 0,0 l/m
09.08.2007 10:00 11,8 C 98 % 0 hPa 0,0 l/m
09.08.2007 11:00 13,0 C 96 % 0 hPa 0,0 l/m
09.08.2007 12:00 13,8 C 89 % 0 hPa 0,0 l/m
09.08.2007 13:00 14,9 C 80 % 0 hPa 0,0 l/m
09.08.2007 14:00 14,4 C 79 % 0 hPa 0,0 l/m
09.08.2007 15:00 13,5 C 82 % 0 hPa 0,0 l/m
09.08.2007 16:00 13,5 C 80 % 0 hPa 0,0 l/m
09.08.2007 17:00 13,5 C 79 % 0 hPa 0,0 l/m
09.08.2007 18:00 13,1 C 78 % 0 hPa 0,0 l/m
09.08.2007 19:00 12,4 C 81 % 0 hPa 0,0 l/m
09.08.2007 20:00 12,1 C 83 % 0 hPa 0,0 l/m
09.08.2007 21:00 11,9 C 83 % 0 hPa 0,0 l/m
09.08.2007 22:00 11,7 C 84 % 0 hPa 0,0 l/m
09.08.2007 23:00 11,5 C 84 % 0 hPa 0,0 l/m
10.08.2007 00:00 11,3 C 84 % 0 hPa 0,0 l/m
10.08.2007 01:00 11,1 C 86 % 0 hPa 0,0 l/m
10.08.2007 02:00 11,0 C 87 % 0 hPa 0,0 l/m
10.08.2007 03:00 10,9 C 87 % 0 hPa 0,0 l/m
10.08.2007 04:00 10,8 C 88 % 0 hPa 0,0 l/m
10.08.2007 05:00 10,5 C 91 % 0 hPa 0,0 l/m
10.08.2007 06:00 10,5 C 92 % 0 hPa 0,0 l/m
10.08.2007 07:00 10,4 C 92 % 0 hPa 0,0 l/m
10.08.2007 08:00 10,8 C 92 % 0 hPa 0,0 l/m
10.08.2007 09:00 11,3 C 90 % 0 hPa 0,0 l/m
10.08.2007 10:00 11,5 C 92 % 0 hPa 1,0 l/m
10.08.2007 11:00 12,0 C 94 % 0 hPa 0,0 l/m
10.08.2007 12:00 12,8 C 93 % 0 hPa 0,0 l/m
10.08.2007 13:00 14,6 C 84 % 0 hPa 0,0 l/m
10.08.2007 14:00 15,5 C 73 % 0 hPa 0,0 l/m
10.08.2007 15:00 16,8 C 65 % 0 hPa 0,0 l/m
10.08.2007 16:00 16,6 C 64 % 0 hPa 0,0 l/m
10.08.2007 17:00 16,1 C 67 % 0 hPa 0,0 l/m
10.08.2007 18:00 15,8 C 71 % 0 hPa 0,0 l/m
10.08.2007 19:00 15,5 C 74 % 0 hPa 0,0 l/m
10.08.2007 20:00 15,0 C 78 % 0 hPa 0,0 l/m
10.08.2007 21:00 14,3 C 84 % 0 hPa 0,0 l/m
10.08.2007 22:00 13,8 C 90 % 0 hPa 1,0 l/m
10.08.2007 23:00 13,7 C 93 % 0 hPa 0,0 l/m
11.08.2007 00:00 13,7 C 95 % 0 hPa 2,0 l/m
11.08.2007 01:00 13,6 C 96 % 0 hPa 2,0 l/m
11.08.2007 02:00 13,6 C 96 % 0 hPa 1,0 l/m
11.08.2007 03:00 13,5 C 97 % 0 hPa 3,0 l/m
11.08.2007 04:00 13,4 C 98 % 0 hPa 3,0 l/m
11.08.2007 05:00 13,4 C 98 % 0 hPa 0,0 l/m
11.08.2007 06:00 13,4 C 98 % 0 hPa 0,0 l/m
11.08.2007 07:00 13,5 C 98 % 0 hPa 1,0 l/m
11.08.2007 08:00 13,6 C 98 % 0 hPa 0,0 l/m
11.08.2007 09:00 13,9 C 98 % 0 hPa 0,0 l/m
11.08.2007 10:00 14,2 C 98 % 0 hPa 0,0 l/m
11.08.2007 11:00 14,5 C 98 % 0 hPa 0,0 l/m
11.08.2007 12:00 15,0 C 98 % 0 hPa 1,0 l/m
11.08.2007 13:00 15,7 C 98 % 0 hPa 0,0 l/m
11.08.2007 14:00 17,0 C 98 % 0 hPa 0,0 l/m
11.08.2007 15:00 18,2 C 94 % 0 hPa 0,0 l/m
11.08.2007 16:00 19,3 C 79 % 0 hPa 0,0 l/m
11.08.2007 17:00 18,4 C 79 % 0 hPa 0,0 l/m
11.08.2007 18:00 18,2 C 83 % 0 hPa 0,0 l/m
11.08.2007 19:00 17,9 C 80 % 0 hPa 0,0 l/m
11.08.2007 20:00 16,7 C 84 % 0 hPa 0,0 l/m
11.08.2007 21:00 15,5 C 88 % 0 hPa 0,0 l/m
11.08.2007 22:00 14,4 C 91 % 0 hPa 0,0 l/m
11.08.2007 23:00 13,7 C 93 % 0 hPa 0,0 l/m
12.08.2007 00:00 13,1 C 95 % 0 hPa 0,0 l/m
12.08.2007 01:00 12,8 C 96 % 0 hPa 0,0 l/m
12.08.2007 02:00 12,6 C 97 % 0 hPa 0,0 l/m
12.08.2007 03:00 12,3 C 98 % 0 hPa 0,0 l/m
12.08.2007 04:00 12,0 C 98 % 0 hPa 0,0 l/m
12.08.2007 05:00 11,9 C 98 % 0 hPa 0,0 l/m
12.08.2007 06:00 11,9 C 98 % 0 hPa 0,0 l/m
12.08.2007 07:00 12,0 C 98 % 0 hPa 0,0 l/m
12.08.2007 08:00 12,6 C 98 % 0 hPa 0,0 l/m
12.08.2007 09:00 13,9 C 98 % 0 hPa 0,0 l/m
12.08.2007 10:00 16,4 C 98 % 0 hPa 0,0 l/m
12.08.2007 11:00 19,7 C 87 % 0 hPa 0,0 l/m
12.08.2007 12:00 21,1 C 64 % 0 hPa 0,0 l/m
12.08.2007 13:00 22,5 C 53 % 0 hPa 0,0 l/m
12.08.2007 14:00 24,1 C 43 % 0 hPa 0,0 l/m
12.08.2007 15:00 24,4 C 41 % 0 hPa 0,0 l/m
12.08.2007 16:00 24,3 C 42 % 0 hPa 0,0 l/m
12.08.2007 17:00 24,5 C 42 % 0 hPa 0,0 l/m
12.08.2007 18:00 24,1 C 44 % 0 hPa 0,0 l/m
12.08.2007 19:00 22,9 C 50 % 0 hPa 0,0 l/m
12.08.2007 20:00 20,4 C 56 % 0 hPa 0,0 l/m
12.08.2007 21:00 18,6 C 65 % 0 hPa 0,0 l/m
12.08.2007 22:00 16,8 C 75 % 0 hPa 0,0 l/m
12.08.2007 23:00 15,5 C 82 % 0 hPa 0,0 l/m
Min-Datum _ 06.08.07 06.08.07 06.08.07 -
_ Min-Zeit 06:38 16:16 00:00 -
Minimum _ 10,2 C 28 % 0 hPa -
Max-Datum _ 06.08.07 08.08.07 06.08.07 08.08.07
_ Max-Zeit 16:55 04:59 00:00 06:02
Maximum _ 30,0 C 98 % 0 hPa 8,0 l/m
Durchschnitt _ 16,0 C 82 % 0 hPa #83,0 l/m

Durchschnitt Minimum Temp.15,6 C
Durchschnitt Maximum Temp.16,3 C